sensor_id;sensor_type;location;lat;lon;timestamp;pressure;altitude;pressure_sealevel;temperature;humidity
64668;BME280;51077;42.716;23.344;2023-02-04T00:00:09;95172.38;;;6.80;52.39
64668;BME280;51077;42.716;23.344;2023-02-04T00:02:36;95175.56;;;6.79;52.21
64668;BME280;51077;42.716;23.344;2023-02-04T00:05:03;95174.81;;;6.78;52.58
64668;BME280;51077;42.716;23.344;2023-02-04T00:07:28;95158.22;;;6.76;52.86
64668;BME280;51077;42.716;23.344;2023-02-04T00:09:53;95156.00;;;6.75;52.95
64668;BME280;51077;42.716;23.344;2023-02-04T00:12:19;95148.78;;;6.72;53.02
64668;BME280;51077;42.716;23.344;2023-02-04T00:14:44;95143.03;;;6.70;53.10
64668;BME280;51077;42.716;23.344;2023-02-04T00:17:10;95136.84;;;6.69;53.24
64668;BME280;51077;42.716;23.344;2023-02-04T00:19:40;95137.84;;;6.66;53.00
64668;BME280;51077;42.716;23.344;2023-02-04T00:22:06;95147.97;;;6.66;53.06
64668;BME280;51077;42.716;23.344;2023-02-04T00:24:35;95145.25;;;6.66;53.14
64668;BME280;51077;42.716;23.344;2023-02-04T00:27:01;95123.94;;;6.64;53.15
64668;BME280;51077;42.716;23.344;2023-02-04T00:29:27;95136.09;;;6.63;52.89
64668;BME280;51077;42.716;23.344;2023-02-04T00:31:53;95134.59;;;6.62;53.12
64668;BME280;51077;42.716;23.344;2023-02-04T00:34:18;95136.31;;;6.60;53.41
64668;BME280;51077;42.716;23.344;2023-02-04T00:36:44;95131.81;;;6.57;53.42
64668;BME280;51077;42.716;23.344;2023-02-04T00:39:09;95131.34;;;6.58;53.43
64668;BME280;51077;42.716;23.344;2023-02-04T00:41:35;95141.25;;;6.55;53.37
64668;BME280;51077;42.716;23.344;2023-02-04T00:44:00;95135.56;;;6.53;53.51
64668;BME280;51077;42.716;23.344;2023-02-04T00:46:26;95132.09;;;6.53;53.57
64668;BME280;51077;42.716;23.344;2023-02-04T00:48:51;95121.19;;;6.53;53.45
64668;BME280;51077;42.716;23.344;2023-02-04T00:51:16;95118.91;;;6.51;53.72
64668;BME280;51077;42.716;23.344;2023-02-04T00:53:42;95118.91;;;6.51;53.42
64668;BME280;51077;42.716;23.344;2023-02-04T00:56:07;95118.19;;;6.51;53.54
64668;BME280;51077;42.716;23.344;2023-02-04T00:58:33;95111.25;;;6.50;53.54
64668;BME280;51077;42.716;23.344;2023-02-04T01:00:58;95098.06;;;6.48;53.52
64668;BME280;51077;42.716;23.344;2023-02-04T01:03:23;95102.78;;;6.48;53.52
64668;BME280;51077;42.716;23.344;2023-02-04T01:05:49;95095.09;;;6.46;53.67
64668;BME280;51077;42.716;23.344;2023-02-04T01:08:14;95096.59;;;6.47;53.67
64668;BME280;51077;42.716;23.344;2023-02-04T01:10:40;95083.97;;;6.44;53.55
64668;BME280;51077;42.716;23.344;2023-02-04T01:13:06;95084.69;;;6.45;53.33
64668;BME280;51077;42.716;23.344;2023-02-04T01:15:33;95073.53;;;6.43;53.80
64668;BME280;51077;42.716;23.344;2023-02-04T01:17:59;95082.19;;;6.41;53.56
64668;BME280;51077;42.716;23.344;2023-02-04T01:20:24;95076.75;;;6.41;53.79
64668;BME280;51077;42.716;23.344;2023-02-04T01:22:50;95065.84;;;6.41;53.49
64668;BME280;51077;42.716;23.344;2023-02-04T01:25:16;95060.38;;;6.41;53.63
64668;BME280;51077;42.716;23.344;2023-02-04T01:27:43;95052.22;;;6.41;53.64
64668;BME280;51077;42.716;23.344;2023-02-04T01:30:10;95057.91;;;6.43;54.04
64668;BME280;51077;42.716;23.344;2023-02-04T01:32:35;95050.22;;;6.42;53.81
64668;BME280;51077;42.716;23.344;2023-02-04T01:35:01;95048.00;;;6.40;53.89
64668;BME280;51077;42.716;23.344;2023-02-04T01:37:26;95040.28;;;6.39;53.38
64668;BME280;51077;42.716;23.344;2023-02-04T01:39:52;95036.09;;;6.38;53.69
64668;BME280;51077;42.716;23.344;2023-02-04T01:42:17;95030.13;;;6.39;53.84
64668;BME280;51077;42.716;23.344;2023-02-04T01:44:43;95022.69;;;6.40;53.53
64668;BME280;51077;42.716;23.344;2023-02-04T01:47:09;95030.13;;;6.39;54.00
64668;BME280;51077;42.716;23.344;2023-02-04T01:49:34;95029.38;;;6.39;53.69
64668;BME280;51077;42.716;23.344;2023-02-04T01:52:01;95023.94;;;6.39;53.97
64668;BME280;51077;42.716;23.344;2023-02-04T01:54:27;95017.75;;;6.38;53.84
64668;BME280;51077;42.716;23.344;2023-02-04T01:56:52;95019.72;;;6.38;53.92
64668;BME280;51077;42.716;23.344;2023-02-04T01:59:20;95019.97;;;6.40;53.56
64668;BME280;51077;42.716;23.344;2023-02-04T02:01:49;95016.50;;;6.39;53.68
64668;BME280;51077;42.716;23.344;2023-02-04T02:04:17;95010.06;;;6.42;53.74
64668;BME280;51077;42.716;23.344;2023-02-04T02:06:47;95019.00;;;6.43;53.49
64668;BME280;51077;42.716;23.344;2023-02-04T02:09:14;95020.47;;;6.44;53.85
64668;BME280;51077;42.716;23.344;2023-02-04T02:11:39;95014.56;;;6.45;53.55
64668;BME280;51077;42.716;23.344;2023-02-04T02:14:05;95007.13;;;6.46;53.67
64668;BME280;51077;42.716;23.344;2023-02-04T02:16:30;95004.91;;;6.44;53.44
64668;BME280;51077;42.716;23.344;2023-02-04T02:18:56;94999.69;;;6.41;53.67
64668;BME280;51077;42.716;23.344;2023-02-04T02:21:38;95008.81;;;6.38;53.69
64668;BME280;51077;42.716;23.344;2023-02-04T02:24:26;95011.56;;;6.38;53.31
64668;BME280;51077;42.716;23.344;2023-02-04T02:26:54;94989.97;;;6.34;53.31
64668;BME280;51077;42.716;23.344;2023-02-04T02:29:21;94978.34;;;6.34;53.97
64668;BME280;51077;42.716;23.344;2023-02-04T02:31:47;94972.13;;;6.33;53.88
64668;BME280;51077;42.716;23.344;2023-02-04T02:34:12;94958.25;;;6.31;53.52
64668;BME280;51077;42.716;23.344;2023-02-04T02:36:38;94954.78;;;6.30;53.50
64668;BME280;51077;42.716;23.344;2023-02-04T02:39:04;94951.31;;;6.30;53.61
64668;BME280;51077;42.716;23.344;2023-02-04T02:41:29;94945.13;;;6.29;53.53
64668;BME280;51077;42.716;23.344;2023-02-04T02:43:55;94935.47;;;6.28;53.74
64668;BME280;51077;42.716;23.344;2023-02-04T02:46:21;94932.47;;;6.26;53.78
64668;BME280;51077;42.716;23.344;2023-02-04T02:48:46;94935.19;;;6.26;53.87
64668;BME280;51077;42.716;23.344;2023-02-04T02:51:12;94930.97;;;6.25;53.92
64668;BME280;51077;42.716;23.344;2023-02-04T02:53:37;94920.06;;;6.25;53.83
64668;BME280;51077;42.716;23.344;2023-02-04T02:56:03;94920.56;;;6.24;54.28
64668;BME280;51077;42.716;23.344;2023-02-04T02:58:31;94930.75;;;6.23;53.78
64668;BME280;51077;42.716;23.344;2023-02-04T03:01:02;94925.03;;;6.21;53.98
64668;BME280;51077;42.716;23.344;2023-02-04T03:03:31;94928.25;;;6.20;54.23
64668;BME280;51077;42.716;23.344;2023-02-04T03:06:15;94923.28;;;6.18;54.06
64668;BME280;51077;42.716;23.344;2023-02-04T03:08:45;94917.06;;;6.18;53.77
64668;BME280;51077;42.716;23.344;2023-02-04T03:11:12;94925.25;;;6.18;54.25
64668;BME280;51077;42.716;23.344;2023-02-04T03:13:38;94926.75;;;6.19;54.07
64668;BME280;51077;42.716;23.344;2023-02-04T03:16:05;94934.94;;;6.19;53.77
64668;BME280;51077;42.716;23.344;2023-02-04T03:18:34;94926.03;;;6.18;53.97
64668;BME280;51077;42.716;23.344;2023-02-04T03:21:01;94926.25;;;6.20;53.81
64668;BME280;51077;42.716;23.344;2023-02-04T03:23:26;94920.31;;;6.22;54.04
64668;BME280;51077;42.716;23.344;2023-02-04T03:25:52;94908.94;;;6.23;54.43
64668;BME280;51077;42.716;23.344;2023-02-04T03:28:18;94906.22;;;6.23;54.22
64668;BME280;51077;42.716;23.344;2023-02-04T03:30:43;94908.94;;;6.23;54.29
64668;BME280;51077;42.716;23.344;2023-02-04T03:33:23;94914.38;;;6.23;53.79
64668;BME280;51077;42.716;23.344;2023-02-04T03:35:49;94901.00;;;6.25;54.26
64668;BME280;51077;42.716;23.344;2023-02-04T03:38:16;94897.03;;;6.26;54.26
64668;BME280;51077;42.716;23.344;2023-02-04T03:40:41;94901.75;;;6.26;54.11
64668;BME280;51077;42.716;23.344;2023-02-04T03:43:06;94912.91;;;6.28;54.26
64668;BME280;51077;42.716;23.344;2023-02-04T03:45:32;94893.34;;;6.29;54.38
64668;BME280;51077;42.716;23.344;2023-02-04T03:47:57;94893.84;;;6.28;54.06
64668;BME280;51077;42.716;23.344;2023-02-04T03:50:23;94891.59;;;6.26;53.78
64668;BME280;51077;42.716;23.344;2023-02-04T03:52:48;94891.84;;;6.28;53.96
64668;BME280;51077;42.716;23.344;2023-02-04T03:55:16;94893.84;;;6.28;54.17
64668;BME280;51077;42.716;23.344;2023-02-04T03:57:41;94883.66;;;6.28;54.25
64668;BME280;51077;42.716;23.344;2023-02-04T04:00:07;94879.47;;;6.27;54.28
64668;BME280;51077;42.716;23.344;2023-02-04T04:02:33;94883.16;;;6.30;54.39
64668;BME280;51077;42.716;23.344;2023-02-04T04:04:58;94877.72;;;6.30;54.11
64668;BME280;51077;42.716;23.344;2023-02-04T04:07:24;94877.25;;;6.32;53.81
64668;BME280;51077;42.716;23.344;2023-02-04T04:09:49;94867.09;;;6.32;54.24
64668;BME280;51077;42.716;23.344;2023-02-04T04:12:15;94867.31;;;6.34;53.92
64668;BME280;51077;42.716;23.344;2023-02-04T04:14:40;94861.41;;;6.36;53.69
64668;BME280;51077;42.716;23.344;2023-02-04T04:17:06;94853.22;;;6.36;54.21
64668;BME280;51077;42.716;23.344;2023-02-04T04:19:31;94848.50;;;6.36;54.41
64668;BME280;51077;42.716;23.344;2023-02-04T04:21:57;94855.44;;;6.37;54.26
64668;BME280;51077;42.716;23.344;2023-02-04T04:24:23;94849.25;;;6.37;54.54
64668;BME280;51077;42.716;23.344;2023-02-04T04:26:48;94866.06;;;6.35;53.86
64668;BME280;51077;42.716;23.344;2023-02-04T04:29:13;94859.41;;;6.36;54.47
64668;BME280;51077;42.716;23.344;2023-02-04T04:31:39;94863.63;;;6.37;54.45
64668;BME280;51077;42.716;23.344;2023-02-04T04:34:04;94873.78;;;6.37;54.17
64668;BME280;51077;42.716;23.344;2023-02-04T04:36:30;94864.88;;;6.36;54.29
64668;BME280;51077;42.716;23.344;2023-02-04T04:38:55;94873.78;;;6.37;54.24
64668;BME280;51077;42.716;23.344;2023-02-04T04:41:20;94853.47;;;6.38;54.22
64668;BME280;51077;42.716;23.344;2023-02-04T04:43:46;94871.06;;;6.37;54.56
64668;BME280;51077;42.716;23.344;2023-02-04T04:46:11;94874.53;;;6.37;54.04
64668;BME280;51077;42.716;23.344;2023-02-04T04:48:37;94877.25;;;6.37;54.55
64668;BME280;51077;42.716;23.344;2023-02-04T04:51:02;94876.50;;;6.37;54.74
64668;BME280;51077;42.716;23.344;2023-02-04T04:53:28;94879.72;;;6.35;54.39
64668;BME280;51077;42.716;23.344;2023-02-04T04:55:54;94880.47;;;6.36;54.68
64668;BME280;51077;42.716;23.344;2023-02-04T04:58:19;94875.03;;;6.36;54.81
64668;BME280;51077;42.716;23.344;2023-02-04T05:00:45;94883.94;;;6.36;54.81
64668;BME280;51077;42.716;23.344;2023-02-04T05:03:10;94883.19;;;6.36;54.96
64668;BME280;51077;42.716;23.344;2023-02-04T05:05:35;94868.81;;;6.35;54.80
64668;BME280;51077;42.716;23.344;2023-02-04T05:08:08;94870.06;;;6.34;54.70
64668;BME280;51077;42.716;23.344;2023-02-04T05:10:47;94868.81;;;6.35;55.21
64668;BME280;51077;42.716;23.344;2023-02-04T05:13:12;94879.47;;;6.33;54.82
64668;BME280;51077;42.716;23.344;2023-02-04T05:15:38;94891.63;;;6.32;55.33
64668;BME280;51077;42.716;23.344;2023-02-04T05:18:04;94896.81;;;6.30;55.09
64668;BME280;51077;42.716;23.344;2023-02-04T05:20:29;94894.34;;;6.32;55.29
64668;BME280;51077;42.716;23.344;2023-02-04T05:22:55;94907.69;;;6.30;55.77
64668;BME280;51077;42.716;23.344;2023-02-04T05:25:21;94911.44;;;6.33;55.60
64668;BME280;51077;42.716;23.344;2023-02-04T05:27:47;94915.66;;;6.34;55.28
64668;BME280;51077;42.716;23.344;2023-02-04T05:30:13;94916.38;;;6.34;55.64
64668;BME280;51077;42.716;23.344;2023-02-04T05:32:38;94919.09;;;6.34;55.46
64668;BME280;51077;42.716;23.344;2023-02-04T05:35:04;94915.91;;;6.36;55.52
64668;BME280;51077;42.716;23.344;2023-02-04T05:37:30;94915.13;;;6.35;55.22
64668;BME280;51077;42.716;23.344;2023-02-04T05:39:56;94916.88;;;6.33;55.58
64668;BME280;51077;42.716;23.344;2023-02-04T05:42:21;94921.59;;;6.32;55.33
64668;BME280;51077;42.716;23.344;2023-02-04T05:44:47;94919.34;;;6.30;55.33
64668;BME280;51077;42.716;23.344;2023-02-04T05:47:12;94923.31;;;6.29;55.30
64668;BME280;51077;42.716;23.344;2023-02-04T05:49:38;94924.06;;;6.30;54.95
64668;BME280;51077;42.716;23.344;2023-02-04T05:52:03;94915.38;;;6.26;55.06
64668;BME280;51077;42.716;23.344;2023-02-04T05:54:29;94907.44;;;6.22;55.44
64668;BME280;51077;42.716;23.344;2023-02-04T05:56:54;94900.03;;;6.23;55.13
64668;BME280;51077;42.716;23.344;2023-02-04T05:59:19;94918.59;;;6.24;55.27
64668;BME280;51077;42.716;23.344;2023-02-04T06:01:45;94921.06;;;6.22;54.96
64668;BME280;51077;42.716;23.344;2023-02-04T06:04:10;94922.28;;;6.21;54.91
64668;BME280;51077;42.716;23.344;2023-02-04T06:06:36;94916.09;;;6.21;54.82
64668;BME280;51077;42.716;23.344;2023-02-04T06:09:01;94921.56;;;6.21;54.81
64668;BME280;51077;42.716;23.344;2023-02-04T06:11:27;94928.97;;;6.20;54.93
64668;BME280;51077;42.716;23.344;2023-02-04T06:13:52;94930.75;;;6.23;54.55
64668;BME280;51077;42.716;23.344;2023-02-04T06:16:17;94921.09;;;6.28;54.66
64668;BME280;51077;42.716;23.344;2023-02-04T06:18:43;94920.84;;;6.32;54.82
64668;BME280;51077;42.716;23.344;2023-02-04T06:21:08;94925.31;;;6.35;54.32
64668;BME280;51077;42.716;23.344;2023-02-04T06:23:34;94922.09;;;6.36;54.26
64668;BME280;51077;42.716;23.344;2023-02-04T06:26:02;94924.31;;;6.38;54.55
64668;BME280;51077;42.716;23.344;2023-02-04T06:28:28;94915.66;;;6.39;54.37
64668;BME280;51077;42.716;23.344;2023-02-04T06:30:53;94919.88;;;6.40;54.14
64668;BME280;51077;42.716;23.344;2023-02-04T06:33:19;94928.31;;;6.42;53.96
64668;BME280;51077;42.716;23.344;2023-02-04T06:35:46;94931.28;;;6.44;54.41
64668;BME280;51077;42.716;23.344;2023-02-04T06:38:11;94928.81;;;6.46;53.85
64668;BME280;51077;42.716;23.344;2023-02-04T06:40:37;94925.09;;;6.49;53.68
64668;BME280;51077;42.716;23.344;2023-02-04T06:43:02;94932.28;;;6.52;53.57
64668;BME280;51077;42.716;23.344;2023-02-04T06:45:28;94928.56;;;6.55;53.58
64668;BME280;51077;42.716;23.344;2023-02-04T06:47:54;94922.88;;;6.59;53.47
64668;BME280;51077;42.716;23.344;2023-02-04T06:50:19;94927.34;;;6.62;53.47
64668;BME280;51077;42.716;23.344;2023-02-04T06:52:45;94917.69;;;6.78;53.00
64668;BME280;51077;42.716;23.344;2023-02-04T06:55:16;94922.41;;;7.00;52.54
64668;BME280;51077;42.716;23.344;2023-02-04T06:57:41;94909.00;;;7.24;52.38
64668;BME280;51077;42.716;23.344;2023-02-04T07:00:08;94910.44;;;7.53;51.27
64668;BME280;51077;42.716;23.344;2023-02-04T07:02:35;94903.44;;;7.75;51.01
64668;BME280;51077;42.716;23.344;2023-02-04T07:05:02;94905.38;;;7.86;50.23
64668;BME280;51077;42.716;23.344;2023-02-04T07:07:28;94902.25;;;8.17;49.85
64668;BME280;51077;42.716;23.344;2023-02-04T07:09:54;94896.97;;;8.36;49.45
64668;BME280;51077;42.716;23.344;2023-02-04T07:12:19;94902.47;;;8.72;48.73
64668;BME280;51077;42.716;23.344;2023-02-04T07:14:45;94898.91;;;9.13;47.66
64668;BME280;51077;42.716;23.344;2023-02-04T07:17:10;94901.00;;;9.55;46.97
64668;BME280;51077;42.716;23.344;2023-02-04T07:19:36;94898.00;;;10.02;46.19
64668;BME280;51077;42.716;23.344;2023-02-04T07:22:02;94891.38;;;10.54;45.33
64668;BME280;51077;42.716;23.344;2023-02-04T07:24:28;94885.06;;;10.92;44.68
64668;BME280;51077;42.716;23.344;2023-02-04T07:26:54;94880.44;;;11.32;43.84
64668;BME280;51077;42.716;23.344;2023-02-04T07:29:19;94889.56;;;11.67;43.06
64668;BME280;51077;42.716;23.344;2023-02-04T07:31:45;94875.63;;;11.91;42.80
64668;BME280;51077;42.716;23.344;2023-02-04T07:34:12;94889.47;;;12.12;42.37
64668;BME280;51077;42.716;23.344;2023-02-04T07:36:38;94896.53;;;12.21;41.76
64668;BME280;51077;42.716;23.344;2023-02-04T07:39:04;94903.94;;;12.26;41.46
64668;BME280;51077;42.716;23.344;2023-02-04T07:41:29;94881.91;;;12.26;41.42
64668;BME280;51077;42.716;23.344;2023-02-04T07:43:55;94886.78;;;12.33;41.74
64668;BME280;51077;42.716;23.344;2023-02-04T07:46:20;94900.41;;;12.39;41.16
64668;BME280;51077;42.716;23.344;2023-02-04T07:48:45;94886.53;;;12.44;41.31
64668;BME280;51077;42.716;23.344;2023-02-04T07:51:11;94881.66;;;12.50;40.85
64668;BME280;51077;42.716;23.344;2023-02-04T07:53:36;94887.72;;;12.70;40.44
64668;BME280;51077;42.716;23.344;2023-02-04T07:56:02;94885.53;;;12.89;39.92
64668;BME280;51077;42.716;23.344;2023-02-04T07:58:27;94880.22;;;12.91;39.80
64668;BME280;51077;42.716;23.344;2023-02-04T08:00:53;94879.63;;;12.85;39.80
64668;BME280;51077;42.716;23.344;2023-02-04T08:03:18;94877.66;;;12.72;39.83
64668;BME280;51077;42.716;23.344;2023-02-04T08:05:44;94878.78;;;12.56;39.78
64668;BME280;51077;42.716;23.344;2023-02-04T08:08:09;94887.81;;;12.43;40.21
64668;BME280;51077;42.716;23.344;2023-02-04T08:10:35;94894.41;;;12.27;40.33
64668;BME280;51077;42.716;23.344;2023-02-04T08:13:00;94887.13;;;12.16;40.62
64668;BME280;51077;42.716;23.344;2023-02-04T08:15:25;94870.63;;;12.03;40.77
64668;BME280;51077;42.716;23.344;2023-02-04T08:17:51;94882.50;;;11.85;41.23
64668;BME280;51077;42.716;23.344;2023-02-04T08:20:16;94885.53;;;11.68;41.34
64668;BME280;51077;42.716;23.344;2023-02-04T08:22:43;94875.91;;;11.48;41.70
64668;BME280;51077;42.716;23.344;2023-02-04T08:25:09;94888.44;;;11.30;41.54
64668;BME280;51077;42.716;23.344;2023-02-04T08:27:36;94886.94;;;11.16;41.95
64668;BME280;51077;42.716;23.344;2023-02-04T08:30:02;94891.22;;;10.98;41.89
64668;BME280;51077;42.716;23.344;2023-02-04T08:32:27;94884.63;;;10.88;42.22
64668;BME280;51077;42.716;23.344;2023-02-04T08:34:54;94889.25;;;10.79;42.34
64668;BME280;51077;42.716;23.344;2023-02-04T08:37:19;94886.38;;;10.72;42.94
64668;BME280;51077;42.716;23.344;2023-02-04T08:39:44;94876.75;;;10.65;43.09
64668;BME280;51077;42.716;23.344;2023-02-04T08:42:12;94879.56;;;10.60;43.13
64668;BME280;51077;42.716;23.344;2023-02-04T08:44:37;94874.69;;;10.52;43.35
64668;BME280;51077;42.716;23.344;2023-02-04T08:47:03;94882.25;;;10.46;43.50
64668;BME280;51077;42.716;23.344;2023-02-04T08:49:28;94863.44;;;10.37;44.00
64668;BME280;51077;42.716;23.344;2023-02-04T08:51:54;94881.75;;;10.29;43.79
64668;BME280;51077;42.716;23.344;2023-02-04T08:54:19;94874.06;;;10.22;44.12
64668;BME280;51077;42.716;23.344;2023-02-04T08:56:44;94874.44;;;10.13;44.31
64668;BME280;51077;42.716;23.344;2023-02-04T08:59:10;94883.03;;;10.03;44.37
64668;BME280;51077;42.716;23.344;2023-02-04T09:01:36;94884.59;;;9.99;44.68
64668;BME280;51077;42.716;23.344;2023-02-04T09:04:01;94880.41;;;9.92;44.72
64668;BME280;51077;42.716;23.344;2023-02-04T09:06:27;94885.97;;;9.87;44.91
64668;BME280;51077;42.716;23.344;2023-02-04T09:08:52;94876.34;;;9.80;44.93
64668;BME280;51077;42.716;23.344;2023-02-04T09:11:18;94880.69;;;9.70;45.40
64668;BME280;51077;42.716;23.344;2023-02-04T09:13:43;94877.47;;;9.66;45.53
64668;BME280;51077;42.716;23.344;2023-02-04T09:16:09;94882.50;;;9.62;45.73
64668;BME280;51077;42.716;23.344;2023-02-04T09:18:35;94874.81;;;9.60;45.84
64668;BME280;51077;42.716;23.344;2023-02-04T09:21:01;94872.59;;;9.59;45.86
64668;BME280;51077;42.716;23.344;2023-02-04T09:23:26;94874.34;;;9.56;46.24
64668;BME280;51077;42.716;23.344;2023-02-04T09:25:52;94867.69;;;9.51;46.11
64668;BME280;51077;42.716;23.344;2023-02-04T09:28:18;94866.41;;;9.52;46.01
64668;BME280;51077;42.716;23.344;2023-02-04T09:30:45;94868.66;;;9.54;46.14
64668;BME280;51077;42.716;23.344;2023-02-04T09:33:11;94868.41;;;9.52;46.25
64668;BME280;51077;42.716;23.344;2023-02-04T09:35:37;94867.69;;;9.51;46.18
64668;BME280;51077;42.716;23.344;2023-02-04T09:38:03;94856.72;;;9.51;46.11
64668;BME280;51077;42.716;23.344;2023-02-04T09:40:32;94869.16;;;9.52;46.18
64668;BME280;51077;42.716;23.344;2023-02-04T09:43:03;94870.94;;;9.50;46.27
64668;BME280;51077;42.716;23.344;2023-02-04T09:45:32;94866.50;;;9.47;46.66
64668;BME280;51077;42.716;23.344;2023-02-04T09:48:01;94854.34;;;9.42;46.76
64668;BME280;51077;42.716;23.344;2023-02-04T09:50:27;94855.63;;;9.36;47.05
64668;BME280;51077;42.716;23.344;2023-02-04T09:52:58;94858.44;;;9.30;47.34
64668;BME280;51077;42.716;23.344;2023-02-04T09:55:34;94853.97;;;9.27;47.59
64668;BME280;51077;42.716;23.344;2023-02-04T09:58:00;94851.75;;;9.25;48.06
64668;BME280;51077;42.716;23.344;2023-02-04T10:00:28;94852.03;;;9.22;48.25
64668;BME280;51077;42.716;23.344;2023-02-04T10:02:56;94840.34;;;9.21;48.29
64668;BME280;51077;42.716;23.344;2023-02-04T10:05:27;94838.13;;;9.20;48.67
64668;BME280;51077;42.716;23.344;2023-02-04T10:07:53;94835.66;;;9.16;48.59
64668;BME280;51077;42.716;23.344;2023-02-04T10:10:22;94837.44;;;9.14;48.97
64668;BME280;51077;42.716;23.344;2023-02-04T10:12:51;94827.28;;;9.09;49.08
64668;BME280;51077;42.716;23.344;2023-02-04T10:15:18;94828.31;;;9.05;49.27
64668;BME280;51077;42.716;23.344;2023-02-04T10:17:45;94822.13;;;8.99;49.55
64668;BME280;51077;42.716;23.344;2023-02-04T10:20:19;94816.44;;;8.97;49.74
64668;BME280;51077;42.716;23.344;2023-02-04T10:22:46;94820.94;;;8.95;49.80
64668;BME280;51077;42.716;23.344;2023-02-04T10:25:14;94807.25;;;8.95;49.88
64668;BME280;51077;42.716;23.344;2023-02-04T10:28:06;94816.44;;;8.97;49.91
64668;BME280;51077;42.716;23.344;2023-02-04T10:30:39;94805.19;;;9.01;50.13
64668;BME280;51077;42.716;23.344;2023-02-04T10:33:21;94811.13;;;9.05;49.98
64668;BME280;51077;42.716;23.344;2023-02-04T10:35:54;94813.38;;;9.06;50.05
64668;BME280;51077;42.716;23.344;2023-02-04T10:38:20;94805.91;;;9.07;50.28
64668;BME280;51077;42.716;23.344;2023-02-04T10:40:46;94805.38;;;9.09;50.27
64668;BME280;51077;42.716;23.344;2023-02-04T10:43:17;94810.56;;;9.12;50.31
64668;BME280;51077;42.716;23.344;2023-02-04T10:45:45;94801.84;;;9.14;50.22
64668;BME280;51077;42.716;23.344;2023-02-04T10:48:16;94803.81;;;9.19;50.28
64668;BME280;51077;42.716;23.344;2023-02-04T10:50:42;94802.75;;;9.22;50.37
64668;BME280;51077;42.716;23.344;2023-02-04T10:53:10;94799.53;;;9.23;50.49
64668;BME280;51077;42.716;23.344;2023-02-04T10:55:55;94803.94;;;9.26;50.35
64668;BME280;51077;42.716;23.344;2023-02-04T10:58:26;94790.50;;;9.28;50.59
64668;BME280;51077;42.716;23.344;2023-02-04T11:00:52;94786.50;;;9.29;50.65
64668;BME280;51077;42.716;23.344;2023-02-04T11:03:24;94785.22;;;9.30;50.83
64668;BME280;51077;42.716;23.344;2023-02-04T11:05:50;94784.50;;;9.30;50.70
64668;BME280;51077;42.716;23.344;2023-02-04T11:08:32;94788.44;;;9.35;50.82
64668;BME280;51077;42.716;23.344;2023-02-04T11:11:08;94789.91;;;9.36;50.82
64668;BME280;51077;42.716;23.344;2023-02-04T11:14:00;94788.13;;;9.38;50.63
64668;BME280;51077;42.716;23.344;2023-02-04T11:16:32;94779.13;;;9.43;50.68
64668;BME280;51077;42.716;23.344;2023-02-04T11:24:22;94772.41;;;9.63;50.47
64668;BME280;51077;42.716;23.344;2023-02-04T11:26:52;94780.56;;;9.69;50.35
64668;BME280;51077;42.716;23.344;2023-02-04T11:29:33;94772.78;;;9.73;50.23
64668;BME280;51077;42.716;23.344;2023-02-04T11:32:28;94767.31;;;9.73;50.12
64668;BME280;51077;42.716;23.344;2023-02-04T11:34:53;94765.81;;;9.72;50.24
64668;BME280;51077;42.716;23.344;2023-02-04T11:37:38;94777.72;;;9.74;50.13
64668;BME280;51077;42.716;23.344;2023-02-04T11:40:21;94772.25;;;9.74;50.23
64668;BME280;51077;42.716;23.344;2023-02-04T11:42:47;94773.81;;;9.70;50.14
64668;BME280;51077;42.716;23.344;2023-02-04T11:47:43;94780.84;;;9.65;50.45
64668;BME280;51077;42.716;23.344;2023-02-04T11:50:23;94786.56;;;9.67;50.44
64668;BME280;51077;42.716;23.344;2023-02-04T11:52:50;94790.03;;;9.68;50.65
64668;BME280;51077;42.716;23.344;2023-02-04T11:55:15;94785.81;;;9.67;50.57
64668;BME280;51077;42.716;23.344;2023-02-04T11:57:42;94784.56;;;9.68;50.48
64668;BME280;51077;42.716;23.344;2023-02-04T12:00:15;94773.59;;;9.68;50.48
64668;BME280;51077;42.716;23.344;2023-02-04T12:02:47;94776.56;;;9.70;50.58
64668;BME280;51077;42.716;23.344;2023-02-04T12:05:17;94762.13;;;9.69;51.48
64668;BME280;51077;42.716;23.344;2023-02-04T12:07:44;94773.53;;;9.73;52.82
64668;BME280;51077;42.716;23.344;2023-02-04T12:12:47;94780.03;;;9.70;53.32
64668;BME280;51077;42.716;23.344;2023-02-04T12:15:20;94771.34;;;9.66;53.04
64668;BME280;51077;42.716;23.344;2023-02-04T12:18:03;94769.44;;;9.61;52.97
64668;BME280;51077;42.716;23.344;2023-02-04T12:20:29;94771.28;;;9.53;52.99
64668;BME280;51077;42.716;23.344;2023-02-04T12:22:55;94774.09;;;9.47;52.87
64668;BME280;51077;42.716;23.344;2023-02-04T12:25:21;94763.22;;;9.42;52.64
64668;BME280;51077;42.716;23.344;2023-02-04T12:27:47;94759.78;;;9.36;52.79
64668;BME280;51077;42.716;23.344;2023-02-04T12:30:12;94764.59;;;9.29;52.75
64668;BME280;51077;42.716;23.344;2023-02-04T12:32:38;94754.66;;;9.26;52.47
64668;BME280;51077;42.716;23.344;2023-02-04T12:35:03;94756.94;;;9.22;52.73
64668;BME280;51077;42.716;23.344;2023-02-04T12:37:30;94763.22;;;9.17;52.83
64668;BME280;51077;42.716;23.344;2023-02-04T12:39:56;94763.50;;;9.14;52.51
64668;BME280;51077;42.716;23.344;2023-02-04T12:42:21;94751.38;;;9.09;52.57
64668;BME280;51077;42.716;23.344;2023-02-04T12:44:46;94752.41;;;9.06;52.71
64668;BME280;51077;42.716;23.344;2023-02-04T12:47:12;94756.69;;;9.01;52.73
64668;BME280;51077;42.716;23.344;2023-02-04T12:49:37;94753.50;;;8.97;52.67
64668;BME280;51077;42.716;23.344;2023-02-04T12:52:04;94758.00;;;8.95;52.58
64668;BME280;51077;42.716;23.344;2023-02-04T12:54:29;94755.03;;;8.93;52.55
64668;BME280;51077;42.716;23.344;2023-02-04T12:56:55;94752.78;;;8.91;52.72
64668;BME280;51077;42.716;23.344;2023-02-04T12:59:23;94758.06;;;8.89;52.53
64668;BME280;51077;42.716;23.344;2023-02-04T13:01:49;94747.59;;;8.88;52.52
64668;BME280;51077;42.716;23.344;2023-02-04T13:04:14;94749.38;;;8.85;52.38
64668;BME280;51077;42.716;23.344;2023-02-04T13:06:40;94750.41;;;8.82;52.57
64668;BME280;51077;42.716;23.344;2023-02-04T13:09:05;94754.16;;;8.79;52.54